A- A+ FrançaisEnglishEspañol中国

Services sur Internet Soldes sur Internet Des idées de cadeaux Météo Météo aéro

La météo à : Autours de vous Tarbes-Lourdes-PyrénéesRennes-St-Jacques RolampontAix-Les Milles

La météo aéronautique pour les pilotes, la préparation du vol avec les METAR (METeorological Aerodrome Report, message d'observation des conditions météorologiques pour l'aviation) et Les TAF (Terminal Aerodrome Forecast : message de prévision à court terme des conditions météorologiques pour l'aviation). Et les autres ressources comme les VAC (Visual Approch Chart) et les NOTAM (Notice To Airman) pour préprer les vols.

Aéroport Dusseldorf (Allemagne) / OACI EDDL/ IATA DUS

L'altitude de l'aéroport Dusseldorf est de 45 m = 148 ft. Il est situé à proximité de Düsseldorf (Allemagne). La météo générale à 5 jours est disponible pour Zeppenheim situé à 1.5 km.

METAR de l'aéroport Dusseldorf - EDDL

EDDL 092250Z 29008KT 250V310 CAVOK 05/02 Q1020 NOSIG

Décodage du METAR de l'aéroport Dusseldorf (DE)

METAR émis par EDDL le lundi 9 décembre 2019 à 22:50 heure TU, il y a 20 minutes.

La visibilité est de supérieure à 10 km = supérieure à 6.2 sm.

La température est de 5°C = 41 °F et le point rosée est de 2°C = 36 °F . Ce qui correspond à 81% d'humidité relative.

Le QNH est de 1020 hPa = 30.12 inHg

Vent de 8 kt = 15 km/h, orienté à 290°.

Pas de nuages.

Aucun changement significatif dans les deux heures à venir

TAF de l'aéroport Dusseldorf - EDDL

EDDL 091700Z 0918/1024 30010KT 9999 BKN030

EDDL 091700Z 0918/1024 30010KT 9999 couverture nuageuse fragmentée à 030

Aéroport à proximité de Dusseldorf

Météo générale à 5 jours à Zeppenheim (1.5 km)Aéroport Krefeld-Egelsberg (16 km)Aéroport Essen-Muelheim (17 km)Aéroport Monchengladbach (19 km)Aéroport Grefrath Niershorst (29 km)Aéroport Kamp Lintfort (31 km)Aéroport Leverkusen (35 km)

VAC de l'aéroport Dusseldorf - EDDL

La carte d'approche à vue (VAC Visual Approah Chart) est fournie sans aucune garantie de son actualité. Le pilote est le seul responsable de la vérification de sa validité avant de l'utiliser opérationnellement pour préparer un vol ou l'utiliser lors de sa navigation.

VAC de EDDL

Vue aérienne de l'aéroport Dusseldorf

NOTAM de l'aéroport Dusseldorf

Les NOTAM sont fournis sans aucune garantie de leur actualité. Le pilote est le seul responsable de la vérification de sa validité avant de l'utiliser opérationnellement pour préparer un vol ou l'utiliser lors de sa navigation.

Pas de NOTAM

Sources des données